Cadott, WI

9:41 AM CST on February 20, 2017 (GMT -0600)
Clear Creek Estates/Sigel Township/Cadott, WI | | Change Station
Active Advisory: Flood Warning

Elev 1007 ft 44.91 °N, 91.14 °W | Updated 33 seconds ago

Partly Cloudy
Partly Cloudy
47.5 °F
Feels Like 44 °F
N
8.0
Wind Variable Wind from SE

Today
High -- | Low -- °F
--% Chance of Precip.
Yesterday
High -- | Low -- °F
Precip. -- in
Pressure 29.91 in
Visibility 9.0 miles
Clouds Clear
Windchill 44 °F
Dew Point 43 °F
Humidity 85%
Rainfall 0.00 in
Snow Depth Not available.
6:57 AM 5:40 PM
Waning Crescent, 33% visible
METAR KEAU 201456Z 11007KT 9SM CLR 08/04 A2990 RMK AO2 SLP129 T00780039 58011
Pressure 29.91 in
Visibility 9.0 miles
Clouds Clear
Windchill 44 °F
Dew Point 43 °F
Humidity 85%
Rainfall 0.00 in
Snow Depth Not available.
6:57 AM 5:40 PM
Waning Crescent, 33% visible
METAR KEAU 201456Z 11007KT 9SM CLR 08/04 A2990 RMK AO2 SLP129 T00780039 58011

Get Your Daily Forecast Email!

Thanks for signing up!

Be on the lookout for a verification email in your inbox.

You'll start receiving the daily forecast at 8 AM.

×

10-Day Weather Forecast

Almanac

Astronomy

Feb. 20, 2017 Rise Set
Actual Time
Civil Twilight
Nautical Twilight
Astronomical Twilight
Moon
Length of Visible Light
Length of Day
Tomorrow will be .
, % of the Moon is Illuminated

Today's Extremes

State Highs State Lows

Community

WunderPhotos

Upload Photos

1,962,540 photos uploaded!

WunderBlog® & News

Nearby

Air Quality

  Air Quality AQ Index Pollutant
Not available.

Snow Depth

Station Depth Elevation

Earthquake Activity

City Distance Mag. Time & Date
Minimum magnitude displayed is 2.5.

Coastal Water Temperatures

Place Temperature

Stations

Nearby Weather Stations

Station Location Temp. Windchill Dew Point Humidity Wind Precip. Elev Updated Type
                   

Watches & Warnings

Flood Warning
Issued: 8:55 AM CST Feb. 20, 2017 – National Weather Service

The National Weather Service in Chanhassen has issued a

* Flood Warning for
the Eau Claire river near Fall Creek.
* From Tuesday evening to Thursday afternoon.
* For Fall Creek, no observed stage value is available.
* Flood stage is 11.0 feet.
* Forecast... the river is forecast to have a maximum value of 13.5
feet Wednesday early afternoon.
* Impact... at 13.0 feet... roads near the river begin to flood.


Lat... Lon 4481 9137 4480 9130 4476 9123 4478 9121 4482 9127 4483 9139